createdAt,value
2018-11-22T00:01:41.713Z,36.90
2018-11-22T00:04:12.233Z,36.73
2018-11-22T00:06:42.916Z,36.20
2018-11-22T00:09:13.516Z,33.67
2018-11-22T00:11:44.117Z,35.97
2018-11-22T00:14:14.636Z,34.10
2018-11-22T00:16:45.217Z,34.40
2018-11-22T00:19:15.923Z,33.80
2018-11-22T00:21:46.331Z,34.60
2018-11-22T00:24:16.909Z,33.13
2018-11-22T00:26:47.466Z,32.63
2018-11-22T00:29:18.113Z,31.73
2018-11-22T00:31:48.457Z,31.77
2018-11-22T00:34:19.107Z,32.77
2018-11-22T00:36:49.533Z,31.37
2018-11-22T00:39:20.130Z,31.47
2018-11-22T00:41:50.592Z,29.87
2018-11-22T00:44:21.257Z,29.00
2018-11-22T00:46:51.733Z,30.37
2018-11-22T00:49:22.277Z,28.80
2018-11-22T00:51:52.881Z,28.90
2018-11-22T00:54:23.360Z,29.37
2018-11-22T00:56:53.899Z,28.70
2018-11-22T00:59:24.357Z,28.47
2018-11-22T01:01:54.817Z,28.13
2018-11-22T01:04:25.229Z,27.90
2018-11-22T01:06:55.713Z,27.10
2018-11-22T01:09:26.222Z,28.13
2018-11-22T01:11:56.747Z,25.50
2018-11-22T01:14:27.285Z,26.27
2018-11-22T01:16:57.849Z,24.93
2018-11-22T01:19:28.408Z,25.80
2018-11-22T01:21:58.929Z,24.80
2018-11-22T01:24:29.349Z,24.30
2018-11-22T01:26:59.821Z,24.23
2018-11-22T01:29:30.312Z,24.53
2018-11-22T01:32:00.619Z,24.57
2018-11-22T01:34:31.128Z,22.93
2018-11-22T01:37:01.739Z,23.33
2018-11-22T01:39:32.267Z,22.77
2018-11-22T01:42:02.808Z,23.13
2018-11-22T01:44:33.241Z,21.90
2018-11-22T01:47:03.795Z,20.40
2018-11-22T01:49:34.336Z,21.67
2018-11-22T01:52:05.022Z,19.83
2018-11-22T01:54:35.547Z,20.03
2018-11-22T01:57:06.291Z,19.50
2018-11-22T01:59:36.812Z,19.27
2018-11-22T02:02:07.477Z,19.80
2018-11-22T02:04:37.918Z,18.97
2018-11-22T02:07:08.455Z,18.00
2018-11-22T02:09:39.053Z,19.40
2018-11-22T02:12:09.424Z,16.63
2018-11-22T02:14:40.008Z,18.00
2018-11-22T02:17:10.528Z,18.23
2018-11-22T02:19:40.998Z,17.00
2018-11-22T02:22:11.532Z,18.10
2018-11-22T02:24:42.168Z,16.43
2018-11-22T02:27:12.838Z,17.47
2018-11-22T02:29:43.344Z,15.97
2018-11-22T02:32:13.832Z,15.47
2018-11-22T02:34:44.343Z,17.00
2018-11-22T02:37:15.026Z,15.50
2018-11-22T02:39:45.570Z,15.20
2018-11-22T02:42:15.986Z,15.17
2018-11-22T02:44:46.564Z,13.67
2018-11-22T02:47:17.098Z,13.90
2018-11-22T02:49:47.568Z,14.00
2018-11-22T02:52:18.095Z,13.70
2018-11-22T02:54:48.460Z,14.00
2018-11-22T02:57:19.285Z,14.40
2018-11-22T02:59:49.602Z,12.90
2018-11-22T03:02:20.245Z,13.70
2018-11-22T03:04:50.608Z,11.93
2018-11-22T03:07:21.915Z,13.33
2018-11-22T03:09:52.624Z,12.23
2018-11-22T03:12:23.179Z,13.67
2018-11-22T03:14:53.729Z,12.37
2018-11-22T03:17:24.269Z,12.30
2018-11-22T03:19:54.807Z,11.70
2018-11-22T03:22:25.341Z,11.60
2018-11-22T03:24:55.785Z,12.13
2018-11-22T03:27:26.239Z,11.87
2018-11-22T03:29:56.710Z,11.20
2018-11-22T03:32:27.210Z,11.27
2018-11-22T03:34:57.775Z,10.60
2018-11-22T03:37:28.143Z,10.10
2018-11-22T03:39:58.841Z,11.00
2018-11-22T03:42:29.514Z,10.80
2018-11-22T03:45:00.040Z,9.80
2018-11-22T03:47:30.525Z,10.03
2018-11-22T03:50:01.271Z,9.43
2018-11-22T03:52:31.918Z,9.40
2018-11-22T03:55:02.347Z,9.97
2018-11-22T03:57:32.874Z,8.80
2018-11-22T04:00:03.250Z,9.60
2018-11-22T04:02:33.758Z,9.77
2018-11-22T04:05:04.438Z,9.13
2018-11-22T04:07:35.250Z,8.93
2018-11-22T04:10:05.712Z,9.30
2018-11-22T04:12:36.338Z,11.10
2018-11-22T04:15:07.671Z,11.13
2018-11-22T04:17:38.208Z,11.27
2018-11-22T04:20:17.639Z,11.43
2018-11-22T04:22:48.069Z,10.10
2018-11-22T04:25:19.136Z,9.07
2018-11-22T04:27:49.680Z,9.30
2018-11-22T04:30:25.538Z,9.53
2018-11-22T04:32:55.972Z,9.30
2018-11-22T04:35:26.836Z,8.83
2018-11-22T04:37:57.360Z,9.60
2018-11-22T04:40:29.269Z,8.00
2018-11-22T04:42:59.785Z,9.37
2018-11-22T04:45:30.334Z,9.60
2018-11-22T04:48:02.472Z,11.00
2018-11-22T04:50:34.921Z,9.73
2018-11-22T04:53:05.419Z,16.57
2018-11-22T04:55:35.982Z,15.77
2018-11-22T04:58:06.568Z,11.87
2018-11-22T05:00:37.004Z,12.10
2018-11-22T05:03:07.451Z,12.87
2018-11-22T05:05:38.104Z,13.30
2018-11-22T05:08:08.511Z,15.80
2018-11-22T05:10:38.937Z,13.20
2018-11-22T05:13:09.390Z,18.03
2018-11-22T05:15:39.853Z,16.40
2018-11-22T05:18:10.333Z,17.37
2018-11-22T05:20:40.935Z,17.70
2018-11-22T05:23:11.596Z,18.53
2018-11-22T05:25:42.136Z,20.43
2018-11-22T05:28:12.693Z,22.73
2018-11-22T05:30:43.146Z,23.17
2018-11-22T05:33:13.577Z,25.10
2018-11-22T05:35:44.036Z,25.53
2018-11-22T05:38:14.457Z,25.93
2018-11-22T05:40:45.015Z,25.83
2018-11-22T05:43:15.650Z,27.70
2018-11-22T05:45:46.088Z,28.97
2018-11-22T05:48:16.548Z,28.70
2018-11-22T05:50:46.968Z,30.03
2018-11-22T05:53:17.504Z,37.30
2018-11-22T05:55:47.937Z,37.27
2018-11-22T05:58:18.434Z,37.37
2018-11-22T06:00:48.858Z,39.17
2018-11-22T06:03:19.412Z,37.80
2018-11-22T06:05:49.861Z,37.13
2018-11-22T06:08:20.401Z,37.33
2018-11-22T06:10:51.049Z,39.33
2018-11-22T06:13:21.681Z,43.17
2018-11-22T06:15:52.264Z,43.87
2018-11-22T06:18:22.582Z,44.47
2018-11-22T06:20:52.995Z,45.00
2018-11-22T06:23:23.668Z,45.00
2018-11-22T06:25:54.093Z,44.27
2018-11-22T06:28:24.551Z,43.40
2018-11-22T06:30:54.901Z,43.60
2018-11-22T06:33:25.301Z,42.00
2018-11-22T06:35:56.177Z,41.20
2018-11-22T06:38:26.678Z,43.20
2018-11-22T06:40:57.249Z,40.80
2018-11-22T06:43:27.714Z,41.10
2018-11-22T06:45:58.260Z,40.20
2018-11-22T06:48:28.721Z,41.47
2018-11-22T06:50:59.145Z,39.93
2018-11-22T06:53:29.721Z,38.57
2018-11-22T06:56:00.249Z,37.17
2018-11-22T06:58:30.871Z,37.23
2018-11-22T07:01:01.372Z,37.10
2018-11-22T07:03:31.896Z,35.97
2018-11-22T07:06:02.423Z,36.43
2018-11-22T07:08:32.982Z,35.20
2018-11-22T07:11:03.428Z,36.57
2018-11-22T07:13:34.054Z,35.00
2018-11-22T07:16:04.595Z,35.07
2018-11-22T07:18:35.175Z,34.67
2018-11-22T07:21:05.772Z,34.60
2018-11-22T07:23:36.321Z,33.20
2018-11-22T07:26:07.211Z,33.00
2018-11-22T07:28:37.721Z,32.20
2018-11-22T07:31:08.186Z,32.70
2018-11-22T07:33:38.713Z,32.00
2018-11-22T07:36:09.207Z,32.20
2018-11-22T07:38:39.614Z,30.23
2018-11-22T07:41:10.248Z,29.37
2018-11-22T07:43:40.588Z,28.27
2018-11-22T07:46:11.055Z,29.77
2018-11-22T07:48:41.700Z,29.53
2018-11-22T07:51:12.261Z,28.60
2018-11-22T07:53:42.825Z,27.80
2018-11-22T07:56:13.235Z,27.20
2018-11-22T07:58:43.683Z,28.97
2018-11-22T08:01:14.229Z,27.30
2018-11-22T08:03:44.702Z,28.20
2018-11-22T08:06:15.197Z,27.63
2018-11-22T08:08:45.728Z,27.30
2018-11-22T08:11:16.298Z,27.00
2018-11-22T08:13:46.746Z,25.90
2018-11-22T08:16:17.405Z,25.37
2018-11-22T08:18:47.923Z,26.20
2018-11-22T08:21:18.407Z,25.90
2018-11-22T08:23:48.728Z,24.70
2018-11-22T08:26:19.182Z,23.80
2018-11-22T08:28:49.540Z,24.20
2018-11-22T08:31:20.078Z,24.50
2018-11-22T08:33:50.841Z,25.03
2018-11-22T08:36:21.437Z,24.13
2018-11-22T08:38:52.002Z,23.33
2018-11-22T08:41:22.565Z,23.13
2018-11-22T08:43:53.027Z,23.87
2018-11-22T08:46:23.444Z,23.30
2018-11-22T08:48:53.877Z,23.77
2018-11-22T08:51:24.450Z,22.63
2018-11-22T08:53:54.955Z,23.80
2018-11-22T08:56:25.634Z,22.50
2018-11-22T08:58:56.066Z,22.20
2018-11-22T09:01:26.741Z,22.93
2018-11-22T09:03:57.369Z,21.43
2018-11-22T09:06:27.880Z,21.83
2018-11-22T09:08:58.664Z,20.63
2018-11-22T09:11:29.133Z,21.23
2018-11-22T09:13:59.539Z,21.17
2018-11-22T09:16:29.981Z,21.23
2018-11-22T09:19:00.436Z,21.63
2018-11-22T09:21:30.975Z,21.00
2018-11-22T09:24:01.513Z,21.03
2018-11-22T09:26:31.952Z,20.70
2018-11-22T09:29:02.432Z,21.80
2018-11-22T09:31:32.789Z,20.10
2018-11-22T09:34:03.400Z,18.70
2018-11-22T09:36:33.926Z,18.70
2018-11-22T09:39:05.106Z,18.93
2018-11-22T09:41:35.659Z,19.40
2018-11-22T09:44:06.225Z,19.20
2018-11-22T09:46:36.772Z,19.57
2018-11-22T09:49:07.447Z,20.70
2018-11-22T09:51:37.986Z,19.37
2018-11-22T09:54:08.589Z,18.57
2018-11-22T09:56:39.237Z,20.27
2018-11-22T09:59:09.712Z,19.60
2018-11-22T10:01:40.275Z,18.67
2018-11-22T10:04:11.079Z,18.73
2018-11-22T10:06:41.719Z,19.53
2018-11-22T10:09:12.407Z,18.93
2018-11-22T10:11:42.930Z,19.17
2018-11-22T10:14:13.471Z,18.83
2018-11-22T10:16:43.982Z,19.13
2018-11-22T10:19:14.657Z,19.43
2018-11-22T10:21:45.171Z,20.17
2018-11-22T10:24:15.763Z,18.80
2018-11-22T10:26:46.600Z,18.70
2018-11-22T10:29:17.284Z,17.60
2018-11-22T10:31:47.947Z,18.80
2018-11-22T10:34:18.415Z,17.80
2018-11-22T10:36:48.999Z,17.87
2018-11-22T10:39:22.547Z,18.50
2018-11-22T10:41:53.021Z,17.40
2018-11-22T10:44:23.431Z,18.27
2018-11-22T10:46:54.043Z,19.13
2018-11-22T10:49:24.543Z,17.63
2018-11-22T10:51:55.114Z,17.80
2018-11-22T10:54:25.590Z,18.00
2018-11-22T10:56:56.081Z,16.77
2018-11-22T10:59:26.534Z,16.93
2018-11-22T11:02:14.564Z,17.73
2018-11-22T11:05:02.428Z,18.07
2018-11-22T11:07:51.581Z,16.77
2018-11-22T11:10:22.389Z,17.80
2018-11-22T11:12:52.920Z,17.07
2018-11-22T11:15:23.409Z,17.37
2018-11-22T11:17:54.010Z,16.23
2018-11-22T11:20:24.556Z,17.37
2018-11-22T11:22:55.114Z,17.17
2018-11-22T11:25:25.551Z,16.27
2018-11-22T11:27:56.207Z,15.93
2018-11-22T11:30:26.849Z,17.40
2018-11-22T11:32:58.042Z,16.27
2018-11-22T11:35:29.333Z,16.63
2018-11-22T11:37:59.789Z,16.57
2018-11-22T11:40:34.880Z,16.50
2018-11-22T11:43:05.282Z,16.13
2018-11-22T11:45:48.139Z,16.17
2018-11-22T11:48:18.989Z,15.20
2018-11-22T11:50:49.535Z,15.23
2018-11-22T11:53:25.130Z,15.57
2018-11-22T11:55:51.572Z,16.10
2018-11-22T11:58:22.065Z,15.33
2018-11-22T12:00:52.710Z,15.63
2018-11-22T12:03:23.177Z,15.50
2018-11-22T12:05:53.723Z,16.37
2018-11-22T12:08:24.201Z,15.57
2018-11-22T12:10:54.584Z,14.77
2018-11-22T12:13:25.171Z,15.30
2018-11-22T12:15:55.786Z,16.60
2018-11-22T12:18:26.962Z,34.87
2018-11-22T12:20:57.591Z,36.33
2018-11-22T12:23:28.134Z,43.97
2018-11-22T12:25:58.693Z,38.90
2018-11-22T12:28:29.227Z,39.00
2018-11-22T12:31:06.405Z,43.43
2018-11-22T12:33:40.060Z,39.10
2018-11-22T12:36:44.217Z,41.67
2018-11-22T12:39:15.815Z,44.47
2018-11-22T12:41:46.260Z,44.40
2018-11-22T12:44:16.816Z,43.93
2018-11-22T12:46:47.300Z,47.23
2018-11-22T12:49:17.911Z,47.77
2018-11-22T12:51:48.439Z,48.30
2018-11-22T12:54:18.914Z,49.57
2018-11-22T12:56:49.381Z,51.37
2018-11-22T12:59:19.803Z,53.47
2018-11-22T13:01:50.245Z,52.77
2018-11-22T13:04:20.809Z,53.63
2018-11-22T13:06:51.337Z,51.20
2018-11-22T13:09:22.864Z,55.30
2018-11-22T13:11:53.234Z,57.40
2018-11-22T13:14:23.691Z,57.67
2018-11-22T13:16:54.097Z,58.43
2018-11-22T13:19:24.651Z,59.57
2018-11-22T13:21:55.207Z,59.77
2018-11-22T13:24:25.608Z,61.80
2018-11-22T13:26:56.047Z,62.10
2018-11-22T13:29:26.647Z,60.97
2018-11-22T13:31:57.050Z,64.30
2018-11-22T13:34:27.548Z,63.93
2018-11-22T13:36:58.082Z,61.70
2018-11-22T13:39:28.752Z,64.40
2018-11-22T13:41:59.374Z,65.87
2018-11-22T13:44:29.935Z,64.17
2018-11-22T13:47:00.372Z,65.23
2018-11-22T13:49:30.927Z,65.13
2018-11-22T13:52:01.460Z,63.10
2018-11-22T13:54:31.927Z,61.40
2018-11-22T13:57:02.326Z,61.23
2018-11-22T13:59:32.784Z,62.13
2018-11-22T14:02:03.211Z,61.90
2018-11-22T14:04:33.748Z,60.20
2018-11-22T14:07:04.417Z,57.00
2018-11-22T14:09:34.973Z,59.23
2018-11-22T14:12:05.509Z,59.90
2018-11-22T14:14:35.932Z,58.20
2018-11-22T14:17:06.399Z,58.10
2018-11-22T14:19:36.913Z,58.43
2018-11-22T14:22:07.618Z,56.37
2018-11-22T14:24:38.247Z,54.30
2018-11-22T14:27:08.867Z,54.60
2018-11-22T14:29:39.308Z,53.17
2018-11-22T14:32:09.775Z,53.50
2018-11-22T14:34:40.418Z,52.43
2018-11-22T14:37:10.957Z,53.07
2018-11-22T14:39:41.508Z,53.50
2018-11-22T14:42:12.093Z,52.37
2018-11-22T14:44:42.693Z,51.93
2018-11-22T14:47:13.247Z,50.63
2018-11-22T14:49:43.732Z,49.83
2018-11-22T14:52:14.457Z,49.50
2018-11-22T14:54:45.105Z,48.60
2018-11-22T14:57:15.672Z,47.40
2018-11-22T14:59:46.171Z,50.00
2018-11-22T15:02:16.749Z,45.50
2018-11-22T15:04:47.147Z,47.17
2018-11-22T15:07:17.699Z,47.80
2018-11-22T15:09:48.253Z,44.03
2018-11-22T15:12:18.794Z,44.90
2018-11-22T15:14:49.338Z,44.57
2018-11-22T15:17:19.905Z,46.03
2018-11-22T15:19:50.365Z,52.70
2018-11-22T15:22:20.786Z,54.57
2018-11-22T15:24:51.306Z,54.40
2018-11-22T15:27:21.868Z,55.30
2018-11-22T15:29:52.295Z,59.13
2018-11-22T15:32:22.796Z,59.53
2018-11-22T15:34:53.293Z,63.50
2018-11-22T15:37:23.721Z,68.07
2018-11-22T15:39:54.385Z,62.00
2018-11-22T15:42:24.825Z,67.30
2018-11-22T15:44:55.381Z,66.30
2018-11-22T15:47:25.934Z,68.17
2018-11-22T15:49:56.377Z,72.43
2018-11-22T15:52:26.943Z,71.17
2018-11-22T15:54:57.731Z,73.90
2018-11-22T15:57:28.183Z,71.93
2018-11-22T15:59:58.651Z,71.97
2018-11-22T16:02:29.016Z,73.43
2018-11-22T16:04:59.490Z,74.80
2018-11-22T16:07:29.912Z,78.53
2018-11-22T16:10:00.584Z,77.60
2018-11-22T16:12:31.094Z,82.17
2018-11-22T16:15:01.680Z,78.07
2018-11-22T16:17:32.199Z,77.80
2018-11-22T16:20:02.740Z,70.97
2018-11-22T16:22:33.188Z,81.37
2018-11-22T16:25:03.735Z,79.67
2018-11-22T16:27:34.260Z,76.10
2018-11-22T16:30:04.693Z,77.30
2018-11-22T16:32:35.269Z,74.97
2018-11-22T16:35:06.383Z,74.97
2018-11-22T16:37:36.977Z,71.67
2018-11-22T16:40:08.919Z,69.43
2018-11-22T16:42:40.129Z,69.43
2018-11-22T16:45:39.342Z,68.80
2018-11-22T16:48:11.621Z,67.57
2018-11-22T16:50:42.853Z,65.27
2018-11-22T16:53:13.336Z,71.70
2018-11-22T16:55:43.838Z,78.00
2018-11-22T16:58:14.423Z,77.43
2018-11-22T17:00:44.931Z,85.63
2018-11-22T17:03:15.681Z,82.30
2018-11-22T17:05:46.353Z,84.40
2018-11-22T17:08:16.771Z,88.63
2018-11-22T17:10:47.129Z,88.73
2018-11-22T17:13:17.647Z,86.30
2018-11-22T17:15:48.326Z,80.87
2018-11-22T17:18:18.744Z,84.30
2018-11-22T17:20:49.076Z,86.80
2018-11-22T17:23:19.645Z,78.97
2018-11-22T17:25:50.152Z,79.73
2018-11-22T17:28:20.918Z,80.10
2018-11-22T17:30:51.816Z,77.20
2018-11-22T17:33:22.314Z,79.23
2018-11-22T17:35:52.965Z,75.97
2018-11-22T17:38:23.608Z,75.00
2018-11-22T17:40:54.042Z,77.73
2018-11-22T17:43:24.432Z,73.40
2018-11-22T17:45:54.841Z,70.10
2018-11-22T17:48:26.072Z,71.00
2018-11-22T17:50:56.566Z,69.47
2018-11-22T17:53:27.147Z,67.73
2018-11-22T17:55:57.457Z,66.70
2018-11-22T17:58:27.864Z,68.17
2018-11-22T18:00:58.441Z,77.10
2018-11-22T18:03:28.784Z,109.07
2018-11-22T18:05:59.138Z,137.83
2018-11-22T18:08:29.565Z,185.93
2018-11-22T18:11:00.121Z,228.97
2018-11-22T18:13:30.635Z,250.80
2018-11-22T18:16:01.845Z,280.97
2018-11-22T18:18:32.380Z,286.47
2018-11-22T18:21:02.854Z,299.80
2018-11-22T18:23:33.562Z,298.17
2018-11-22T18:26:04.328Z,288.07
2018-11-22T18:28:34.959Z,293.33
2018-11-22T18:31:06.215Z,231.63
2018-11-22T18:33:36.657Z,282.87
2018-11-22T18:36:07.412Z,282.83
2018-11-22T18:38:37.944Z,285.27
2018-11-22T18:41:08.290Z,288.20
2018-11-22T18:43:38.826Z,280.37
2018-11-22T18:46:09.416Z,273.50
2018-11-22T18:48:39.741Z,266.00
2018-11-22T18:51:11.102Z,264.40
2018-11-22T18:53:41.662Z,216.40
2018-11-22T18:56:12.092Z,53.97
2018-11-22T18:58:42.657Z,108.37
2018-11-22T19:01:13.352Z,137.17
2018-11-22T19:03:43.818Z,152.10
2018-11-22T19:06:14.388Z,141.73
2018-11-22T19:08:44.915Z,136.87
2018-11-22T19:11:15.544Z,135.50
2018-11-22T19:13:46.197Z,134.30
2018-11-22T19:16:16.653Z,129.67
2018-11-22T19:18:47.170Z,129.23
2018-11-22T19:21:17.759Z,121.10
2018-11-22T19:23:48.192Z,121.20
2018-11-22T19:26:18.625Z,119.50
2018-11-22T19:28:49.138Z,116.80
2018-11-22T19:31:19.609Z,113.47
2018-11-22T19:33:50.136Z,111.40
2018-11-22T19:36:20.625Z,109.40
2018-11-22T19:38:51.260Z,108.60
2018-11-22T19:41:22.021Z,102.90
2018-11-22T19:43:52.734Z,102.47
2018-11-22T19:46:23.314Z,102.70
2018-11-22T19:48:53.873Z,99.10
2018-11-22T19:51:24.392Z,95.77
2018-11-22T19:53:54.957Z,93.80
2018-11-22T19:56:25.504Z,91.93
2018-11-22T19:58:55.917Z,88.47
2018-11-22T20:01:26.321Z,86.50
2018-11-22T20:03:56.782Z,86.10
2018-11-22T20:06:27.240Z,85.37
2018-11-22T20:08:58.012Z,80.33
2018-11-22T20:11:28.654Z,80.67
2018-11-22T20:13:59.316Z,77.80
2018-11-22T20:16:29.944Z,78.47
2018-11-22T20:19:01.700Z,75.23
2018-11-22T20:21:32.335Z,71.73
2018-11-22T20:24:02.921Z,73.90
2018-11-22T20:26:33.272Z,72.00
2018-11-22T20:29:03.914Z,69.37
2018-11-22T20:31:34.345Z,67.20
2018-11-22T20:34:04.783Z,66.70
2018-11-22T20:36:35.337Z,65.10
2018-11-22T20:39:08.562Z,63.83
2018-11-22T20:41:39.226Z,63.30
2018-11-22T20:44:10.833Z,61.30
2018-11-22T20:46:41.356Z,61.17
2018-11-22T20:49:11.845Z,59.87
2018-11-22T20:51:42.278Z,59.53
2018-11-22T20:54:12.746Z,57.70
2018-11-22T20:56:43.033Z,58.23
2018-11-22T20:59:13.712Z,56.23
2018-11-22T21:01:44.521Z,55.10
2018-11-22T21:04:15.207Z,56.20
2018-11-22T21:06:45.846Z,53.97
2018-11-22T21:09:16.333Z,51.83
2018-11-22T21:11:46.856Z,60.70
2018-11-22T21:14:17.307Z,66.23
2018-11-22T21:16:47.763Z,65.53
2018-11-22T21:19:18.169Z,69.13
2018-11-22T21:21:48.731Z,67.13
2018-11-22T21:24:19.300Z,66.10
2018-11-22T21:26:49.737Z,69.10
2018-11-22T21:29:20.169Z,69.50
2018-11-22T21:31:50.632Z,68.10
2018-11-22T21:34:21.037Z,68.37
2018-11-22T21:36:51.610Z,68.53
2018-11-22T21:39:22.082Z,71.03
2018-11-22T21:41:52.600Z,73.67
2018-11-22T21:44:23.061Z,72.37
2018-11-22T21:46:53.457Z,72.43
2018-11-22T21:49:23.995Z,74.30
2018-11-22T21:51:55.826Z,76.27
2018-11-22T21:54:26.372Z,73.00
2018-11-22T21:56:56.869Z,71.10
2018-11-22T21:59:27.330Z,73.60
2018-11-22T22:01:57.778Z,70.83
2018-11-22T22:04:28.238Z,76.43
2018-11-22T22:06:58.668Z,76.00
2018-11-22T22:09:29.212Z,75.27
2018-11-22T22:11:59.875Z,75.80
2018-11-22T22:14:30.511Z,81.00
2018-11-22T22:17:00.975Z,79.53
2018-11-22T22:19:31.408Z,83.00
2018-11-22T22:22:01.973Z,80.20
2018-11-22T22:24:32.668Z,83.70
2018-11-22T22:27:03.109Z,83.10
2018-11-22T22:29:33.461Z,83.30
2018-11-22T22:32:04.113Z,81.23
2018-11-22T22:34:34.645Z,81.70
2018-11-22T22:37:05.308Z,82.50
2018-11-22T22:39:35.712Z,83.63
2018-11-22T22:42:06.289Z,83.50
2018-11-22T22:44:36.660Z,84.17
2018-11-22T22:47:07.274Z,82.53
2018-11-22T22:49:37.924Z,85.73
2018-11-22T22:52:08.459Z,84.40
2018-11-22T22:54:39.016Z,83.47
2018-11-22T22:57:09.370Z,83.90
2018-11-22T22:59:39.737Z,83.00
2018-11-22T23:02:10.264Z,82.27
2018-11-22T23:04:40.713Z,82.77
2018-11-22T23:07:11.245Z,83.37
2018-11-22T23:09:41.829Z,81.87
2018-11-22T23:12:12.345Z,82.60
2018-11-22T23:14:42.698Z,79.50
2018-11-22T23:17:13.119Z,81.90
2018-11-22T23:19:43.665Z,80.27
2018-11-22T23:22:14.199Z,80.97
2018-11-22T23:24:44.711Z,81.13
2018-11-22T23:27:15.180Z,80.43
2018-11-22T23:29:45.639Z,79.70
2018-11-22T23:32:16.176Z,79.57
2018-11-22T23:34:46.716Z,78.67
2018-11-22T23:37:17.252Z,82.17
2018-11-22T23:39:47.708Z,80.17
2018-11-22T23:42:18.139Z,82.03
2018-11-22T23:44:48.580Z,79.00
2018-11-22T23:47:19.064Z,80.13
2018-11-22T23:49:49.399Z,81.73
2018-11-22T23:52:19.940Z,80.27
2018-11-22T23:54:50.473Z,79.50
2018-11-22T23:57:21.026Z,78.30
2018-11-22T23:59:51.489Z,77.97
